AirNav   Everest Fuels
 
 1313 users online  

6MN7 Sodbuster Strip Airport
Goodhue, Minnesota, USA

GOING TO GOODHUE?


FAA INFORMATION EFFECTIVE 21 MAY 2020

Location

FAA Identifier: 6MN7
Lat/Long: 44-24-03.7500N 092-41-15.3600W
44-24.062500N 092-41.256000W
44.4010417,-92.6876000
(estimated)
Elevation: 1200 ft. / 366 m (estimated)
From city: 4 miles N of GOODHUE, MN
Time zone: UTC -5 (UTC -6 during Standard Time)
Zip code: 55027

Airport Operations

Airport use: Private use. Permission required prior to landing
Activation date: 07/2010
Control tower: no
ARTCC: MINNEAPOLIS CENTER
FSS: PRINCETON FLIGHT SERVICE STATION
Attendance: UNATNDD
Wind indicator: yes
Segmented circle: no

Airport Communications

WX AWOS-3 at RGK (14 nm NE): 119.25 (715-594-3763)
WX AWOS-3 at SYN (15 nm W): 119.35 (507-664-3806)

Nearby radio navigation aids

VOR radial/distance  VOR name  Freq  Var
FGTr117/25.3FARMINGTON VORTAC115.7006E
FOWr066/31.6HALFWAY VOR/DME111.2002E
RSTr349/37.3ROCHESTER VOR/DME112.0005E
MSPr140/37.9MINNEAPOLIS VOR/DME115.3002E

 
NDB name  Hdg/Dist  Freq  Var  ID
REGUE186/11.927402ERG .-. --.
HOPEY156/30.340003EPPI .--. .--. ..

Airport Services

Runway Information

Runway 18/36

Dimensions: 1562 x 50 ft. / 476 x 15 m
Surface: turf
RUNWAY 18  RUNWAY 36
Traffic pattern: leftleft

Airport Ownership and Management from official FAA records

Ownership: Privately-owned
Owner: NEAL A. STENLUND
38676 COUNTY 6 BLVD
GOODHUE, MN 55027
Phone 651-923-4379
Manager: NEAL A. STENLUND
38676 COUNTY 6 BLVD
GOODHUE, MN 55027
Phone 651-923-4379
CELL 651-380-3870

Airport Operational Statistics

Aircraft based on the field: 1
Single engine airplanes: 1
    

Additional Remarks

FOR CD CTC MINNEAPOLIS ARTCC AT 651-463-5588.

Instrument Procedures

There are no published instrument procedures at 6MN7.

Some nearby airports with instrument procedures:

KRGK - Red Wing Regional Airport (14 nm NE)
KTOB - Dodge Center Airport (24 nm S)
KLVN - Airlake Airport (27 nm NW)
KFBL - Faribault Municipal Airport-Liz Wall Strohfus Field (27 nm W)
KOWA - Owatonna Degner Regional Airport (30 nm SW)
 
Loc | Ops | Rwys | IFR | FBO | Links
Com | Nav | Svcs | Stats | Notes
Aerial photo
No photo
 
Sectional chart

 
Airport distance calculator
Flying to Sodbuster Strip Airport? Find the distance to fly.

From to 6MN7

Sunrise and sunset
Times for 02-Jun-2020
 Local
(UTC-5)
 Zulu
(UTC)
Morning civil twilight04:5309:53
Sunrise05:2910:29
Sunset20:4801:48
Evening civil twilight21:2402:24

Current date and time
Zulu (UTC)  02-Jun-2020 14:51:46
Local (UTC-5)  02-Jun-2020 09:51:46
 
METAR
KRGK 
14nm NE 
021436Z AUTO 25005KT 10SM CLR 28/17 A2979 RMK AO2
KSYN 
15nm W 
021436Z AUTO 23004KT 10SM CLR 27/18 A2980 RMK AO2 T02740181
KTOB 
24nm S 
021436Z AUTO 25009KT 10SM CLR 27/17 A2984 RMK AO2 PWINO
K9MN 
25nm S 
021435Z AUTO 25009G15KT 10SM CLR 27/17 A2983 RMK AO1 T02650171
TAF
NOTAMs
Click for the latest NOTAMs
NOTAMs are issued by the DoD/FAA and will open in a separate window not controlled by AirNav.

 

 
 

Would you like to see your business listed on this page?

 If your business provides an interesting product or service to pilots, flight crews, aircraft, or users of the Sodbuster Strip Airport, you should consider listing it here.  To start the listing process, click on the button below
 
Add a business
 

Other Pages about Sodbuster Strip Airport

Update a link
 
Copyright © AirNav, LLC. All rights reserved. Privacy Policy  Contact